createdAt,value
2022-12-09T00:03:23.084Z,3.97
2022-12-09T00:08:25.971Z,3.97
2022-12-09T00:13:32.640Z,3.97
2022-12-09T00:18:35.370Z,4.01
2022-12-09T00:23:37.110Z,4.04
2022-12-09T00:28:40.025Z,4.03
2022-12-09T00:33:42.302Z,4.02
2022-12-09T00:38:46.204Z,4.03
2022-12-09T00:43:48.436Z,4.02
2022-12-09T00:48:50.912Z,4.02
2022-12-09T00:53:54.924Z,4.05
2022-12-09T00:58:58.674Z,4.05
2022-12-09T01:04:02.773Z,4.05
2022-12-09T01:09:05.200Z,4.07
2022-12-09T01:14:07.328Z,4.08
2022-12-09T01:19:13.319Z,4.07
2022-12-09T01:24:15.437Z,4.05
2022-12-09T01:29:17.146Z,4.00
2022-12-09T01:34:19.340Z,4.01
2022-12-09T01:39:21.209Z,4.01
2022-12-09T01:44:25.385Z,4.01
2022-12-09T01:49:34.315Z,4.03
2022-12-09T01:54:37.672Z,4.10
2022-12-09T01:59:40.329Z,4.13
2022-12-09T02:04:45.638Z,4.15
2022-12-09T02:09:53.473Z,4.15
2022-12-09T02:15:06.783Z,4.16
2022-12-09T02:20:21.605Z,4.16
2022-12-09T02:25:34.352Z,4.17
2022-12-09T02:30:56.753Z,4.17
2022-12-09T02:36:05.783Z,4.22
2022-12-09T02:41:15.266Z,4.20
2022-12-09T02:46:21.881Z,4.22
2022-12-09T02:51:27.300Z,4.23
2022-12-09T02:56:29.570Z,4.20
2022-12-09T03:01:43.928Z,4.22
2022-12-09T03:06:53.230Z,4.23
2022-12-09T03:11:59.524Z,4.23
2022-12-09T03:17:12.900Z,4.23
2022-12-09T03:22:18.541Z,4.21
2022-12-09T03:27:25.643Z,4.17
2022-12-09T03:32:29.893Z,4.15
2022-12-09T03:37:33.213Z,4.15
2022-12-09T03:42:42.884Z,4.10
2022-12-09T03:47:44.728Z,4.10
2022-12-09T03:52:54.011Z,4.09
2022-12-09T03:58:00.297Z,4.05
2022-12-09T04:03:02.086Z,4.00
2022-12-09T04:08:04.159Z,4.01
2022-12-09T04:13:06.305Z,4.01
2022-12-09T04:18:08.182Z,3.95
2022-12-09T04:23:10.564Z,3.94
2022-12-09T04:28:12.644Z,3.94
2022-12-09T04:33:14.649Z,3.91
2022-12-09T04:38:16.341Z,3.88
2022-12-09T04:43:18.235Z,3.82
2022-12-09T04:48:20.472Z,3.73
2022-12-09T04:53:23.292Z,3.61
2022-12-09T04:58:25.427Z,3.50
2022-12-09T05:03:27.453Z,3.42
2022-12-09T05:08:31.656Z,3.32
2022-12-09T05:13:34.312Z,3.22
2022-12-09T05:18:36.829Z,3.12
2022-12-09T05:23:39.530Z,3.02
2022-12-09T05:28:42.370Z,2.89
2022-12-09T05:33:45.823Z,2.79
2022-12-09T05:38:48.957Z,2.69
2022-12-09T05:43:52.128Z,2.61
2022-12-09T05:48:54.800Z,2.54
2022-12-09T05:54:01.022Z,2.47
2022-12-09T05:59:03.317Z,2.41
2022-12-09T06:04:05.643Z,2.37
2022-12-09T06:09:12.219Z,2.32
2022-12-09T06:14:14.439Z,2.29
2022-12-09T06:19:16.685Z,2.27
2022-12-09T06:24:18.844Z,2.22
2022-12-09T06:29:21.266Z,2.16
2022-12-09T06:34:23.243Z,2.11
2022-12-09T06:39:25.200Z,2.04
2022-12-09T06:44:27.007Z,1.98
2022-12-09T06:49:28.721Z,1.90
2022-12-09T06:54:31.059Z,1.83
2022-12-09T06:59:32.962Z,1.80
2022-12-09T07:04:35.255Z,1.78
2022-12-09T07:09:37.808Z,1.79
2022-12-09T07:14:39.946Z,1.79
2022-12-09T07:19:41.892Z,1.83
2022-12-09T07:24:44.592Z,1.85
2022-12-09T07:29:47.237Z,1.87
2022-12-09T07:34:49.477Z,1.91
2022-12-09T07:39:51.436Z,1.97
2022-12-09T07:44:53.460Z,1.99
2022-12-09T07:49:56.812Z,2.07
2022-12-09T07:55:01.623Z,2.13
2022-12-09T08:00:04.929Z,2.18
2022-12-09T08:05:13.801Z,2.22
2022-12-09T08:10:16.612Z,2.23
2022-12-09T08:15:20.312Z,2.28
2022-12-09T08:20:28.876Z,2.34
2022-12-09T08:25:31.466Z,2.41
2022-12-09T08:30:33.314Z,2.50
2022-12-09T08:35:38.021Z,2.66
2022-12-09T08:40:40.786Z,2.83
2022-12-09T08:45:42.726Z,2.99
2022-12-09T08:50:45.375Z,3.17
2022-12-09T08:55:47.647Z,3.34
2022-12-09T09:00:50.419Z,3.55
2022-12-09T09:05:52.397Z,3.83
2022-12-09T09:10:55.105Z,4.12
2022-12-09T09:15:57.094Z,4.35
2022-12-09T09:20:59.734Z,4.49
2022-12-09T09:26:03.499Z,4.68
2022-12-09T09:31:07.692Z,4.86
2022-12-09T09:36:20.984Z,5.02
2022-12-09T09:41:27.226Z,5.06
2022-12-09T09:46:44.224Z,5.14
2022-12-09T09:51:47.615Z,5.18
2022-12-09T09:57:39.084Z,5.19
2022-12-09T10:03:04.972Z,5.23
2022-12-09T10:08:28.069Z,5.29
2022-12-09T10:13:44.224Z,5.30
2022-12-09T10:19:07.655Z,5.30
2022-12-09T10:24:26.201Z,5.37
2022-12-09T10:29:56.789Z,5.39
2022-12-09T10:35:00.375Z,5.38
2022-12-09T10:40:36.237Z,5.44
2022-12-09T10:51:24.795Z,5.64
2022-12-09T10:56:32.640Z,5.67
2022-12-09T11:01:51.659Z,5.65
2022-12-09T11:07:05.229Z,5.56
2022-12-09T11:12:17.610Z,5.54
2022-12-09T11:17:39.971Z,5.59
2022-12-09T11:22:44.139Z,5.70
2022-12-09T11:27:54.608Z,5.71
2022-12-09T11:32:58.775Z,5.73
2022-12-09T11:38:13.326Z,5.78
2022-12-09T11:43:15.279Z,5.87
2022-12-09T11:48:35.015Z,5.93
2022-12-09T11:53:41.189Z,5.93
2022-12-09T11:58:48.648Z,5.94
2022-12-09T12:04:00.654Z,6.00
2022-12-09T12:09:11.731Z,6.05
2022-12-09T12:14:22.976Z,6.07
2022-12-09T12:19:37.370Z,6.07
2022-12-09T12:24:46.359Z,6.09
2022-12-09T12:30:10.728Z,6.11
2022-12-09T12:35:30.544Z,6.17
2022-12-09T12:40:38.765Z,6.06
2022-12-09T12:46:17.191Z,6.17
2022-12-09T12:51:37.257Z,6.31
2022-12-09T12:57:09.286Z,6.18
2022-12-09T13:02:22.905Z,6.12
2022-12-09T13:07:38.629Z,6.05
2022-12-09T13:12:56.587Z,5.98
2022-12-09T13:18:07.450Z,5.98
2022-12-09T13:23:39.897Z,5.99
2022-12-09T13:28:54.857Z,6.00
2022-12-09T13:34:15.593Z,5.94
2022-12-09T13:39:39.208Z,5.89
2022-12-09T13:44:41.032Z,5.84
2022-12-09T13:49:51.571Z,5.83
2022-12-09T13:54:53.412Z,5.78
2022-12-09T14:00:00.468Z,5.70
2022-12-09T14:05:26.161Z,5.71
2022-12-09T14:10:47.821Z,5.71
2022-12-09T14:16:28.137Z,5.67
2022-12-09T14:21:31.178Z,5.68
2022-12-09T14:26:47.810Z,5.61
2022-12-09T14:31:55.426Z,5.47
2022-12-09T14:37:41.570Z,5.43
2022-12-09T14:43:05.193Z,5.36
2022-12-09T14:48:15.021Z,5.32
2022-12-09T14:53:25.836Z,5.29
2022-12-09T14:58:27.928Z,5.18
2022-12-09T15:03:35.451Z,5.13
2022-12-09T15:08:40.977Z,5.18
2022-12-09T15:13:47.373Z,5.01
2022-12-09T15:18:51.314Z,4.86
2022-12-09T15:23:53.369Z,4.78
2022-12-09T15:28:56.617Z,4.69
2022-12-09T15:34:00.770Z,4.66
2022-12-09T15:39:07.254Z,4.58
2022-12-09T15:44:14.291Z,4.47
2022-12-09T15:49:23.172Z,4.41
2022-12-09T15:54:36.027Z,4.35
2022-12-09T15:59:55.340Z,4.33
2022-12-09T16:05:02.908Z,4.33
2022-12-09T16:10:08.113Z,4.23
2022-12-09T16:15:14.243Z,4.17
2022-12-09T16:20:41.230Z,4.20
2022-12-09T16:25:49.281Z,4.21
2022-12-09T16:30:55.730Z,4.22
2022-12-09T16:35:59.180Z,4.15
2022-12-09T16:41:04.273Z,4.14
2022-12-09T16:46:15.339Z,4.15
2022-12-09T16:51:23.899Z,4.13
2022-12-09T16:56:28.576Z,4.10
2022-12-09T17:01:35.626Z,4.05
2022-12-09T17:06:37.351Z,4.01
2022-12-09T17:11:42.900Z,3.89
2022-12-09T17:16:48.873Z,3.75
2022-12-09T17:21:55.348Z,3.70
2022-12-09T17:26:57.016Z,3.68
2022-12-09T17:31:58.789Z,3.70
2022-12-09T17:37:00.502Z,3.67
2022-12-09T17:42:02.239Z,3.67
2022-12-09T17:47:03.931Z,3.68
2022-12-09T17:52:05.851Z,3.59
2022-12-09T17:57:07.543Z,3.55
2022-12-09T18:02:11.189Z,3.47
2022-12-09T18:07:12.905Z,3.48
2022-12-09T18:12:14.592Z,3.40
2022-12-09T18:17:16.393Z,3.41
2022-12-09T18:22:18.134Z,3.44
2022-12-09T18:27:19.855Z,3.41
2022-12-09T18:32:21.592Z,3.39
2022-12-09T18:37:25.735Z,3.39
2022-12-09T18:42:27.405Z,3.33
2022-12-09T18:47:29.195Z,3.27
2022-12-09T18:52:30.921Z,3.21
2022-12-09T18:57:33.232Z,3.18
2022-12-09T19:02:34.986Z,3.08
2022-12-09T19:07:36.818Z,3.08
2022-12-09T19:12:46.991Z,3.07
2022-12-09T19:17:50.066Z,3.04
2022-12-09T19:22:52.292Z,2.86
2022-12-09T19:27:55.192Z,2.82
2022-12-09T19:32:56.928Z,2.87
2022-12-09T19:38:01.573Z,2.79
2022-12-09T19:43:03.899Z,2.75
2022-12-09T19:48:05.749Z,2.82
2022-12-09T19:53:08.870Z,2.79
2022-12-09T19:58:10.588Z,2.72
2022-12-09T20:03:12.382Z,2.78
2022-12-09T20:08:14.159Z,2.76
2022-12-09T20:13:16.383Z,2.77
2022-12-09T20:18:18.151Z,2.74
2022-12-09T20:23:19.886Z,2.75
2022-12-09T20:28:21.614Z,2.72
2022-12-09T20:33:23.263Z,2.80
2022-12-09T20:38:24.947Z,2.80
2022-12-09T20:43:26.712Z,2.79
2022-12-09T20:48:28.397Z,2.82
2022-12-09T20:53:30.577Z,2.73
2022-12-09T20:58:32.293Z,2.74
2022-12-09T21:03:34.279Z,2.76
2022-12-09T21:08:37.456Z,2.78
2022-12-09T21:13:42.356Z,2.70
2022-12-09T21:18:44.104Z,2.78
2022-12-09T21:23:46.918Z,2.71
2022-12-09T21:28:49.219Z,2.72
2022-12-09T21:33:52.511Z,2.72
2022-12-09T21:38:54.441Z,2.70
2022-12-09T21:43:57.605Z,2.71
2022-12-09T21:49:03.967Z,2.69
2022-12-09T21:54:06.296Z,2.65
2022-12-09T21:59:09.900Z,2.71
2022-12-09T22:04:16.096Z,2.78
2022-12-09T22:09:20.702Z,2.85
2022-12-09T22:14:24.109Z,2.82
2022-12-09T22:19:26.610Z,2.78
2022-12-09T22:24:28.335Z,2.81
2022-12-09T22:29:30.107Z,2.84
2022-12-09T22:34:36.986Z,2.86
2022-12-09T22:39:38.717Z,2.86
2022-12-09T22:44:40.975Z,2.85
2022-12-09T22:49:42.684Z,2.81
2022-12-09T22:54:44.529Z,2.79
2022-12-09T22:59:46.215Z,2.78
2022-12-09T23:04:47.908Z,2.76
2022-12-09T23:09:50.261Z,2.77
2022-12-09T23:14:51.967Z,2.80
2022-12-09T23:19:53.674Z,2.81
2022-12-09T23:24:55.381Z,2.79
2022-12-09T23:29:57.166Z,2.77
2022-12-09T23:35:03.075Z,2.76
2022-12-09T23:40:08.672Z,2.77
2022-12-09T23:45:10.676Z,2.76
2022-12-09T23:50:12.333Z,2.76
2022-12-09T23:55:13.990Z,2.76
